Norwich, Ohio
Current Conditions -  °F | °C
As of 10:53 AM on Thursday 23 Oct 2014 (Local Time) from KZZV Reporting Station
Broken Clouds Broken Clouds  
Wind Chill: 50°   Ceiling: 1500
Heat Index: 50°   Visibility: 10mi
Dew Point: 42°   Wind: 12mph
Humidity: 74%   Direction: 330°NNW
Pressure: 30.23"   Gusts: NA
Location:  39.99°N, 81.79°W
Report Text: KZZV 231453Z AUTO 33010KT 10SM BKN015 10/06 A3023 RMK AO2 SLP238 T01000056 53004
Loading
Personal Weather Stations






























Interactive Weather Map
Tropical Storm Tracking
New forecast layout! Learn more

10-Day Weather Forecast

Advertisements
Track Severe Weather on mobile